Time;durP1;ratioP1;P1;durP2;ratioP2;P2;SDS_P1;SDS_P2;PMS_P1;PMS_P2;Temp;Humidity;BMP_temperature;BMP_pressure;BME280_temperature;BME280_humidity;BME280_pressure;Samples;Min_cycle;Max_cycle;Signal;HPM_P1;HPM_P2
2023/02/24 00:00:55;;;;;;;3.60;1.53;;;;;;;2.21;100.00;100843.41;7386990;19;20439;-43
2023/02/24 00:03:24;;;;;;;3.13;0.90;;;;;;;2.20;100.00;100837.41;7392781;19;20438;-44
2023/02/24 00:05:54;;;;;;;3.60;0.73;;;;;;;2.19;100.00;100835.63;7387025;19;20423;-43
2023/02/24 00:08:23;;;;;;;4.03;1.40;;;;;;;2.24;100.00;100833.44;7393380;19;20404;-44
2023/02/24 00:10:56;;;;;;;2.87;0.83;;;;;;;2.21;100.00;100823.03;7387970;19;20457;-43
2023/02/24 00:13:25;;;;;;;5.80;0.90;;;;;;;2.15;100.00;100823.41;7391914;19;20462;-42
2023/02/24 00:16:02;;;;;;;6.40;0.83;;;;;;;2.12;100.00;100815.56;7388161;19;20959;-43
2023/02/24 00:18:33;;;;;;;6.00;0.97;;;;;;;2.16;100.00;100810.81;7393490;19;20417;-44
2023/02/24 00:21:09;;;;;;;5.87;0.93;;;;;;;2.20;100.00;100801.75;7388266;19;20981;-41
2023/02/24 00:23:40;;;;;;;8.37;1.33;;;;;;;2.19;100.00;100806.75;7392568;19;20441;-43
2023/02/24 00:26:13;;;;;;;7.53;0.83;;;;;;;2.16;100.00;100805.72;7387208;19;20435;-43
2023/02/24 00:28:43;;;;;;;4.47;0.97;;;;;;;2.17;100.00;100801.53;7400241;19;20431;-43
2023/02/24 00:31:14;;;;;;;4.27;0.87;;;;;;;2.19;100.00;100799.97;7395885;19;20471;-44
2023/02/24 00:33:46;;;;;;;3.83;0.90;;;;;;;2.17;100.00;100801.53;7399306;19;21301;-43
2023/02/24 00:36:22;;;;;;;9.53;1.20;;;;;;;2.11;100.00;100788.34;7396743;19;20418;-45
2023/02/24 00:38:54;;;;;;;11.10;1.17;;;;;;;2.14;100.00;100788.56;7399234;19;20403;-42
2023/02/24 00:41:28;;;;;;;5.10;0.70;;;;;;;2.18;100.00;100779.50;7394209;19;20502;-43
2023/02/24 00:44:04;;;;;;;3.20;0.73;;;;;;;2.19;100.00;100771.97;7396866;19;20482;-45
2023/02/24 00:46:36;;;;;;;5.07;0.93;;;;;;;2.23;100.00;100771.44;7394807;19;20459;-44
2023/02/24 00:49:11;;;;;;;5.13;1.00;;;;;;;2.21;100.00;100765.34;7399766;19;20399;-43
2023/02/24 00:51:43;;;;;;;7.07;1.27;;;;;;;2.18;100.00;100767.66;7395501;19;20457;-41
2023/02/24 00:54:13;;;;;;;9.13;1.33;;;;;;;2.20;100.00;100766.09;7398302;19;20443;-44
2023/02/24 00:56:49;;;;;;;7.43;1.20;;;;;;;2.17;100.00;100760.81;7394673;19;20765;-42
2023/02/24 00:59:21;;;;;;;6.07;0.83;;;;;;;2.20;100.00;100752.50;7399364;19;20396;-45
2023/02/24 01:01:50;;;;;;;7.10;1.23;;;;;;;2.21;100.00;100750.06;7395663;19;20431;-43
2023/02/24 01:04:20;;;;;;;13.10;1.70;;;;;;;2.19;100.00;100743.09;7396663;19;20443;-43
2023/02/24 01:06:58;;;;;;;9.50;1.43;;;;;;;2.19;100.00;100743.97;7396764;19;20447;-42
2023/02/24 01:09:30;;;;;;;6.47;2.00;;;;;;;2.20;100.00;100734.69;7399409;19;20415;-44
2023/02/24 01:14:46;;;;;;;6.20;1.07;;;;;;;2.21;100.00;100732.22;7397437;19;20768;-43
2023/02/24 01:17:17;;;;;;;7.53;1.20;;;;;;;2.19;100.00;100738.88;7398105;19;20776;-43
2023/02/24 01:19:48;;;;;;;7.83;1.90;;;;;;;2.17;100.00;100740.44;7396642;19;20412;-43
2023/02/24 01:22:19;;;;;;;4.30;1.10;;;;;;;2.15;100.00;100741.97;7396545;19;20412;-43
2023/02/24 01:24:49;;;;;;;2.87;1.10;;;;;;;2.18;100.00;100742.19;7393121;19;20411;-40
2023/02/24 01:27:21;;;;;;;4.83;1.20;;;;;;;2.16;100.00;100743.75;7398448;19;21315;-43
2023/02/24 01:29:52;;;;;;;5.50;1.30;;;;;;;2.19;100.00;100748.19;7395049;19;20415;-44
2023/02/24 01:32:24;;;;;;;8.37;1.20;;;;;;;2.16;100.00;100743.75;7397235;19;20434;-42
2023/02/24 01:34:54;;;;;;;7.23;1.10;;;;;;;2.18;100.00;100747.28;7395609;19;20393;-42
2023/02/24 01:37:24;;;;;;;13.97;1.93;;;;;;;2.17;100.00;100745.53;7398233;19;20960;-41
2023/02/24 01:39:54;;;;;;;7.77;1.43;;;;;;;2.20;100.00;100745.75;7393361;19;20414;-44
2023/02/24 01:42:26;;;;;;;12.27;1.37;;;;;;;2.23;100.00;100745.09;7397163;19;20498;-43
2023/02/24 01:45:15;;;;;;;5.50;1.33;;;;;;;2.14;100.00;100735.09;7392455;19;20412;-43
2023/02/24 01:47:46;;;;;;;7.83;1.63;;;;;;;2.14;100.00;100740.19;7399664;19;20419;-43
2023/02/24 01:50:20;;;;;;;7.40;1.27;;;;;;;2.14;100.00;100735.09;7392759;19;20438;-40
2023/02/24 01:52:54;;;;;;;12.20;1.60;;;;;;;2.15;100.00;100726.69;7395148;19;20439;-40
2023/02/24 01:55:28;;;;;;;12.83;1.70;;;;;;;2.13;100.00;100725.69;7393243;19;20946;-41
2023/02/24 01:58:03;;;;;;;8.00;1.40;;;;;;;2.18;100.00;100720.94;7394357;19;20404;-43
2023/02/24 02:00:44;;;;;;;15.57;1.60;;;;;;;2.13;100.00;100718.06;7389892;19;20416;-43
2023/02/24 02:03:23;;;;;;;5.80;1.10;;;;;;;2.11;100.00;100714.53;7389697;19;20438;-41
2023/02/24 02:05:54;;;;;;;9.40;1.20;;;;;;;2.11;100.00;100711.97;7384299;19;20454;-42
2023/02/24 02:08:25;;;;;;;5.00;1.10;;;;;;;2.14;100.00;100702.91;7390075;19;20375;-43
2023/02/24 02:10:59;;;;;;;4.60;1.30;;;;;;;2.02;100.00;100700.31;7386290;19;20447;-41
2023/02/24 02:13:34;;;;;;;3.70;1.10;;;;;;;2.00;100.00;100693.34;7392383;19;20806;-44
2023/02/24 02:16:34;;;;;;;10.20;1.30;;;;;;;1.94;100.00;100685.25;7387453;19;20416;-42
2023/02/24 02:19:17;;;;;;;10.03;1.67;;;;;;;1.95;100.00;100682.81;7391508;19;20396;-40
2023/02/24 02:22:09;;;;;;;8.47;1.17;;;;;;;1.94;100.00;100675.94;7387186;19;20439;-43
2023/02/24 02:24:47;;;;;;;16.87;1.77;;;;;;;1.97;100.00;100663.47;7394030;19;20400;-43
2023/02/24 02:27:30;;;;;;;9.10;1.40;;;;;;;1.96;100.00;100656.59;7396085;19;20410;-43
2023/02/24 02:30:32;;;;;;;6.53;1.00;;;;;;;1.94;100.00;100649.63;7393303;19;21065;-43
2023/02/24 02:33:38;;;;;;;4.03;0.93;;;;;;;1.93;100.00;100643.63;7395199;19;20445;-44
2023/02/24 02:36:15;;;;;;;7.63;0.87;;;;;;;1.95;100.00;100636.13;7392130;19;20437;-43
2023/02/24 02:38:52;;;;;;;8.13;1.33;;;;;;;1.95;100.00;100631.91;7396774;19;20424;-44
2023/02/24 02:41:27;;;;;;;3.80;1.23;;;;;;;1.97;100.00;100620.19;7391024;19;21011;-40
2023/02/24 02:44:06;;;;;;;9.43;1.50;;;;;;;1.92;100.00;100618.97;7393995;19;20439;-42
2023/02/24 02:46:40;;;;;;;13.73;1.60;;;;;;;1.91;100.00;100613.75;7392126;19;21320;-43
2023/02/24 02:49:16;;;;;;;6.07;1.53;;;;;;;1.92;100.00;100608.78;7396161;19;20398;-43
2023/02/24 02:51:50;;;;;;;6.67;1.47;;;;;;;1.92;100.00;100596.06;7388270;19;20826;-43
2023/02/24 02:54:26;;;;;;;9.07;1.33;;;;;;;1.93;100.00;100597.81;7393591;19;20440;-43
2023/02/24 02:57:00;;;;;;;6.83;1.13;;;;;;;1.91;100.00;100601.94;7391143;19;20422;-44
2023/02/24 02:59:31;;;;;;;7.10;0.93;;;;;;;1.90;100.00;100597.63;7395715;19;20395;-45
2023/02/24 03:02:10;;;;;;;9.53;1.03;;;;;;;1.92;100.00;100590.06;7391616;19;20442;-43
2023/02/24 03:04:42;;;;;;;7.80;1.13;;;;;;;1.89;100.00;100585.63;7392649;19;20408;-43
2023/02/24 03:07:16;;;;;;;7.23;1.10;;;;;;;1.91;100.00;100584.13;7395522;19;20927;-41
2023/02/24 03:09:48;;;;;;;4.23;0.93;;;;;;;1.91;100.00;100578.13;7393613;19;20415;-41
2023/02/24 03:12:20;;;;;;;6.10;0.77;;;;;;;1.89;100.00;100565.28;7391495;19;20406;-44
2023/02/24 03:14:55;;;;;;;10.30;1.57;;;;;;;1.88;100.00;100564.41;7393559;19;20382;-39
2023/02/24 03:17:27;;;;;;;3.23;1.00;;;;;;;1.92;100.00;100564.63;7395444;19;20410;-42
2023/02/24 03:20:13;;;;;;;5.30;0.90;;;;;;;1.92;100.00;100559.53;7391946;19;20400;-43
2023/02/24 03:22:50;;;;;;;5.87;1.07;;;;;;;1.91;100.00;100557.78;7395574;19;20457;-43
2023/02/24 03:25:23;;;;;;;3.53;1.07;;;;;;;1.87;100.00;100547.38;7390897;19;20426;-42
2023/02/24 03:27:55;;;;;;;5.23;1.33;;;;;;;1.87;100.00;100546.47;7394123;19;20392;-43
2023/02/24 03:30:29;;;;;;;4.27;1.00;;;;;;;1.91;100.00;100532.31;7390905;19;20640;-44
2023/02/24 03:33:04;;;;;;;2.30;0.80;;;;;;;1.91;100.00;100528.13;7394020;19;20439;-44
2023/02/24 03:35:37;;;;;;;9.23;1.00;;;;;;;1.90;100.00;100521.28;7390533;19;20444;-42
2023/02/24 03:38:09;;;;;;;14.47;3.13;;;;;;;1.91;100.00;100517.97;7394746;19;20399;-43
2023/02/24 03:40:42;;;;;;;3.87;0.80;;;;;;;1.89;100.00;100520.38;7390711;19;20423;-44
2023/02/24 03:43:15;;;;;;;5.77;1.50;;;;;;;1.88;100.00;100512.63;7393821;19;21002;-41
2023/02/24 03:45:45;;;;;;;20.97;1.70;;;;;;;1.89;100.00;100509.31;7389971;19;20423;-44
2023/02/24 03:48:16;;;;;;;5.83;1.17;;;;;;;1.89;100.00;100500.03;7394778;19;20919;-44
2023/02/24 03:50:45;;;;;;;13.23;1.17;;;;;;;1.87;100.00;100482.88;7388925;19;20470;-42
2023/02/24 03:53:31;;;;;;;6.30;1.33;;;;;;;1.89;100.00;100492.38;7394028;19;20784;-43
2023/02/24 03:56:09;;;;;;;2.93;0.70;;;;;;;1.87;100.00;100487.97;7388953;19;20766;-44
2023/02/24 03:58:46;;;;;;;3.53;1.30;;;;;;;1.86;100.00;100478.56;7395152;19;20462;-42
2023/02/24 04:01:19;;;;;;;3.03;0.83;;;;;;;1.83;100.00;100484.31;7389684;19;20443;-42
2023/02/24 04:03:57;;;;;;;5.20;1.43;;;;;;;1.82;100.00;100474.00;7398403;19;20789;-40
2023/02/24 04:06:34;;;;;;;4.47;0.90;;;;;;;1.85;100.00;100472.56;7397618;19;20995;-43
2023/02/24 04:09:10;;;;;;;3.93;0.93;;;;;;;1.84;100.00;100465.72;7401026;19;21058;-43
2023/02/24 04:11:45;;;;;;;3.40;1.00;;;;;;;1.86;100.00;100460.75;7397118;19;20809;-44
2023/02/24 04:14:23;;;;;;;5.73;0.90;;;;;;;1.83;100.00;100452.88;7398643;19;20982;-42
2023/02/24 04:16:59;;;;;;;6.10;1.53;;;;;;;1.82;100.00;100446.03;7397783;19;20449;-42
2023/02/24 04:19:32;;;;;;;3.93;0.63;;;;;;;1.79;100.00;100438.19;7401337;19;20434;-43
2023/02/24 04:22:02;;;;;;;4.20;0.90;;;;;;;1.80;100.00;100428.09;7396713;19;20431;-41
2023/02/24 04:24:35;;;;;;;11.93;1.40;;;;;;;1.80;100.00;100411.97;7401137;19;20405;-43
2023/02/24 04:27:07;;;;;;;11.80;0.73;;;;;;;1.78;100.00;100418.63;7400388;19;20439;-39
2023/02/24 04:29:45;;;;;;;5.73;0.87;;;;;;;1.77;100.00;100406.66;7402041;19;20411;-43
2023/02/24 04:32:16;;;;;;;7.63;0.90;;;;;;;1.77;100.00;100402.47;7398665;19;20442;-44
2023/02/24 04:34:45;;;;;;;1.60;0.80;;;;;;;1.80;100.00;100395.03;7398595;19;20464;-43
2023/02/24 04:37:15;;;;;;;6.40;0.80;;;;;;;1.77;100.00;100387.19;7400466;19;20392;-44
2023/02/24 04:39:47;;;;;;;5.27;1.30;;;;;;;1.78;100.00;100375.38;7397721;19;20435;-41
2023/02/24 04:42:18;;;;;;;11.43;0.93;;;;;;;1.78;100.00;100360.97;7399315;19;20435;-43
2023/02/24 04:44:48;;;;;;;14.97;0.83;;;;;;;1.77;100.00;100355.75;7396630;19;20434;-43
2023/02/24 04:47:17;;;;;;;4.80;1.10;;;;;;;1.78;100.00;100357.56;7399863;19;20391;-44
2023/02/24 04:49:47;;;;;;;10.83;1.20;;;;;;;1.79;100.00;100344.06;7397010;19;20415;-46
2023/02/24 04:52:19;;;;;;;7.67;0.90;;;;;;;1.72;100.00;100332.56;7399552;19;20406;-42
2023/02/24 04:54:51;;;;;;;3.67;1.20;;;;;;;1.71;100.00;100326.59;7395158;19;20418;-41
2023/02/24 04:57:21;;;;;;;3.40;0.70;;;;;;;1.74;100.00;100316.63;7400047;19;20411;-43
2023/02/24 04:59:52;;;;;;;2.23;0.90;;;;;;;1.71;100.00;100291.00;7396698;19;20404;-41
2023/02/24 05:02:24;;;;;;;9.13;1.47;;;;;;;1.70;100.00;100294.28;7398445;19;20412;-44
2023/02/24 05:04:54;;;;;;;2.43;0.63;;;;;;;1.70;100.00;100279.03;7395991;19;20422;-42
2023/02/24 05:07:23;;;;;;;5.40;1.77;;;;;;;1.70;100.00;100271.38;7399441;19;20770;-43
2023/02/24 05:09:57;;;;;;;5.47;1.10;;;;;;;1.67;100.00;100261.00;7396131;19;20475;-43
2023/02/24 05:12:28;;;;;;;5.53;1.03;;;;;;;1.68;100.00;100244.97;7398090;19;20415;-42
2023/02/24 05:15:00;;;;;;;5.47;1.13;;;;;;;1.65;100.00;100233.69;7392694;19;20408;-43
2023/02/24 05:17:29;;;;;;;7.37;1.03;;;;;;;1.62;100.00;100236.91;7399444;19;20400;-43
2023/02/24 05:22:40;;;;;;;8.10;1.37;;;;;;;1.61;100.00;100212.25;7398645;19;20439;-42
2023/02/24 05:25:13;;;;;;;4.70;0.97;;;;;;;1.58;100.00;100202.75;7392431;19;20445;-41
2023/02/24 05:27:42;;;;;;;1.53;0.50;;;;;;;1.59;100.00;100196.03;7398728;19;20432;-45
2023/02/24 05:30:13;;;;;;;2.00;0.73;;;;;;;1.60;100.00;100190.16;7390780;19;20415;-43
2023/02/24 05:32:44;;;;;;;15.87;1.13;;;;;;;1.58;100.00;100184.97;7394588;19;20447;-41
2023/02/24 05:35:13;;;;;;;5.30;0.70;;;;;;;1.65;100.00;100177.75;7391766;19;20431;-43
2023/02/24 05:37:43;;;;;;;4.67;1.33;;;;;;;1.59;100.00;100168.91;7397119;19;20388;-41
2023/02/24 05:40:18;;;;;;;2.30;0.83;;;;;;;1.58;100.00;100156.97;7391502;19;20411;-42
2023/02/24 05:42:50;;;;;;;2.87;0.93;;;;;;;1.60;100.00;100152.88;7394296;19;20489;-43
2023/02/24 05:45:20;;;;;;;4.55;0.95;;;;;;;1.64;100.00;100146.34;7392789;19;20447;-41
2023/02/24 05:47:49;;;;;;;16.10;1.70;;;;;;;1.65;100.00;100142.16;7394903;19;20142;-41
2023/02/24 05:50:25;;;;;;;2.30;1.00;;;;;;;1.61;100.00;100141.94;7390854;19;20411;-45
2023/02/24 05:52:54;;;;;;;3.37;0.87;;;;;;;1.61;100.00;100136.88;7393114;19;20777;-44
2023/02/24 05:55:26;;;;;;;2.37;0.90;;;;;;;1.61;100.00;100134.31;7391751;19;20422;-43
2023/02/24 05:57:58;;;;;;;3.47;0.80;;;;;;;1.60;100.00;100119.81;7394662;19;20972;-43
2023/02/24 06:00:27;;;;;;;2.97;0.77;;;;;;;1.57;100.00;100113.63;7389972;19;20981;-45
2023/02/24 06:03:07;;;;;;;4.10;1.43;;;;;;;1.53;100.00;100106.59;7394133;19;20448;-43
2023/02/24 06:05:38;;;;;;;8.63;1.83;;;;;;;1.49;100.00;100097.88;7390883;19;20859;-43
2023/02/24 06:08:10;;;;;;;2.72;0.82;;;;;;;1.33;100.00;100078.16;7394845;19;20387;-43
2023/02/24 06:10:45;;;;;;;5.83;1.20;;;;;;;1.25;100.00;100062.38;7391578;19;20194;-43
2023/02/24 06:13:14;;;;;;;6.97;0.80;;;;;;;1.13;100.00;100041.22;7395061;19;20828;-43
2023/02/24 06:15:49;;;;;;;3.70;1.30;;;;;;;1.08;100.00;100020.59;7392119;19;20414;-43
2023/02/24 06:18:20;;;;;;;2.53;1.07;;;;;;;0.96;100.00;99996.88;7394750;19;20144;-44
2023/02/24 06:20:50;;;;;;;10.82;1.00;;;;;;;0.89;100.00;99983.75;7388899;19;20514;-43
2023/02/24 06:23:19;;;;;;;2.00;0.63;;;;;;;0.87;100.00;99959.03;7393962;19;20662;-42
2023/02/24 06:25:52;;;;;;;2.22;1.05;;;;;;;0.83;100.00;99932.53;7389486;19;20198;-44
2023/02/24 06:28:21;;;;;;;3.10;1.10;;;;;;;0.81;100.00;99913.75;7395155;19;20135;-43
2023/02/24 06:30:50;;;;;;;11.95;1.40;;;;;;;0.77;100.00;99909.28;7389551;19;20186;-43
2023/02/24 06:33:21;;;;;;;5.30;1.80;;;;;;;0.73;100.00;99892.94;7393101;19;20198;-41
2023/02/24 06:35:52;;;;;;;11.32;1.52;;;;;;;0.67;100.00;99873.09;7389397;19;20214;-44
2023/02/24 06:38:21;;;;;;;8.05;1.40;;;;;;;0.72;100.00;99855.59;7390850;19;20135;-44
2023/02/24 06:40:56;;;;;;;7.65;1.67;;;;;;;0.71;100.00;99846.22;7386735;19;20198;-43
2023/02/24 06:43:26;;;;;;;6.00;1.63;;;;;;;0.71;100.00;99831.00;7391367;19;20158;-43
2023/02/24 06:45:55;;;;;;;3.67;1.00;;;;;;;0.67;100.00;99824.84;7388760;19;20571;-43
2023/02/24 06:48:26;;;;;;;4.80;1.25;;;;;;;0.65;100.00;99828.94;7390958;19;20463;-43
2023/02/24 06:50:56;;;;;;;3.05;1.30;;;;;;;0.66;100.00;99806.94;7387341;19;20201;-44
2023/02/24 06:53:26;;;;;;;12.35;2.35;;;;;;;0.65;100.00;99815.34;7390346;19;20258;-44
2023/02/24 06:56:01;;;;;;;7.70;2.53;;;;;;;0.65;100.00;99806.09;7387092;19;20190;-43
2023/02/24 06:58:31;;;;;;;7.53;2.60;;;;;;;0.61;100.00;99800.72;7394611;19;20545;-44
2023/02/24 07:01:03;;;;;;;9.50;2.53;;;;;;;0.61;100.00;99791.41;7387036;19;20186;-44
2023/02/24 07:03:46;;;;;;;14.73;2.78;;;;;;;0.61;100.00;99780.41;7389909;19;20174;-45
2023/02/24 07:06:22;;;;;;;4.60;1.52;;;;;;;0.59;100.00;99780.28;7386879;19;20193;-43
2023/02/24 07:08:53;;;;;;;4.53;2.15;;;;;;;0.55;100.00;99770.69;7391917;19;20140;-43
2023/02/24 07:11:26;;;;;;;8.73;2.15;;;;;;;0.57;100.00;99760.66;7388611;19;20234;-41
2023/02/24 07:13:56;;;;;;;7.88;2.65;;;;;;;0.56;100.00;99756.38;7390560;19;20158;-44
2023/02/24 07:16:28;;;;;;;6.55;2.65;;;;;;;0.53;100.00;99757.03;7388103;19;20194;-44
2023/02/24 07:18:59;;;;;;;8.23;2.50;;;;;;;0.50;100.00;99749.22;7391709;19;20151;-45
2023/02/24 07:21:38;;;;;;;8.73;2.00;;;;;;;0.49;100.00;99752.53;7387433;19;20218;-45
2023/02/24 07:24:08;;;;;;;6.47;2.88;;;;;;;0.49;100.00;99772.84;7390163;19;20162;-46
2023/02/24 07:26:42;;;;;;;4.30;2.00;;;;;;;0.48;100.00;99755.84;7387947;19;20198;-44
2023/02/24 07:29:13;;;;;;;8.13;2.10;;;;;;;0.43;100.00;99747.03;7391520;19;20138;-43
2023/02/24 07:31:45;;;;;;;6.50;1.15;;;;;;;0.42;100.00;99755.44;7387751;19;20199;-43
2023/02/24 07:34:22;;;;;;;5.80;2.30;;;;;;;0.43;100.00;99759.75;7389783;19;20167;-47
2023/02/24 07:36:53;;;;;;;6.35;2.03;;;;;;;0.40;100.00;99762.94;7388028;19;20193;-44
2023/02/24 07:39:24;;;;;;;3.38;1.83;;;;;;;0.39;100.00;99757.00;7390855;19;20202;-43
2023/02/24 07:41:58;;;;;;;8.20;2.58;;;;;;;0.36;100.00;99751.72;7388543;19;20294;-46
2023/02/24 07:44:28;;;;;;;2.03;1.13;;;;;;;0.34;100.00;99762.53;7388423;19;20162;-44
2023/02/24 07:46:58;;;;;;;3.30;1.40;;;;;;;0.36;100.00;99755.94;7386174;19;20218;-45
2023/02/24 07:49:29;;;;;;;5.25;1.98;;;;;;;0.32;100.00;99759.03;7390355;19;20130;-46
2023/02/24 07:51:59;;;;;;;14.88;1.20;;;;;;;0.27;100.00;99751.13;7386983;19;20265;-45
2023/02/24 07:54:29;;;;;;;2.42;1.10;;;;;;;0.22;100.00;99752.47;7389027;19;20158;-45
2023/02/24 07:57:02;;;;;;;3.38;1.65;;;;;;;0.19;100.00;99750.59;7386578;19;20202;-42
2023/02/24 07:59:34;;;;;;;5.85;1.80;;;;;;;0.17;100.00;99748.72;7390275;19;20480;-45
2023/02/24 08:02:06;;;;;;;12.07;1.55;;;;;;;0.19;100.00;99748.06;7386372;19;20202;-44
2023/02/24 08:04:39;;;;;;;4.80;2.08;;;;;;;0.18;100.00;99745.41;7390311;19;20138;-46
2023/02/24 08:07:13;;;;;;;3.05;1.48;;;;;;;0.14;100.00;99741.78;7389177;19;20409;-47
2023/02/24 08:10:08;;;;;;;4.65;2.20;;;;;;;0.08;100.00;99743.91;7392216;19;20139;-47
2023/02/24 08:12:41;;;;;;;3.97;1.90;;;;;;;0.11;100.00;99728.91;7388628;19;20163;-46
2023/02/24 08:15:22;;;;;;;3.15;1.40;;;;;;;0.10;100.00;99691.66;7387189;19;20190;-45
2023/02/24 08:17:58;;;;;;;3.92;1.55;;;;;;;0.16;100.00;99706.38;7389794;19;20138;-44
2023/02/24 08:20:28;;;;;;;3.15;1.67;;;;;;;0.16;100.00;99701.31;7386195;19;20210;-48
2023/02/24 08:22:58;;;;;;;1.85;1.10;;;;;;;0.17;100.00;99700.53;7388710;19;20167;-44
2023/02/24 08:25:34;;;;;;;6.35;1.77;;;;;;;0.19;100.00;99702.38;7386136;19;20186;-46
2023/02/24 08:28:10;;;;;;;12.75;1.75;;;;;;;0.17;100.00;99687.84;7388009;19;20141;-46
2023/02/24 08:30:43;;;;;;;3.25;1.52;;;;;;;0.17;100.00;99673.50;7386009;19;20199;-46
2023/02/24 08:33:17;;;;;;;5.47;1.83;;;;;;;0.18;100.00;99644.81;7388351;19;20169;-46
2023/02/24 08:35:46;;;;;;;3.67;1.70;;;;;;;0.17;100.00;99632.91;7386932;19;20222;-51
2023/02/24 08:38:19;;;;;;;6.93;1.52;;;;;;;0.22;100.00;99616.34;7389860;19;20131;-46
2023/02/24 08:40:57;;;;;;;5.00;2.40;;;;;;;0.24;100.00;99604.63;7388386;19;20201;-47
2023/02/24 08:43:34;;;;;;;8.45;1.70;;;;;;;0.25;100.00;99585.19;7387164;19;20868;-46
2023/02/24 08:46:11;;;;;;;2.13;1.30;;;;;;;0.28;100.00;99585.41;7386269;19;20670;-47
2023/02/24 08:48:45;;;;;;;3.45;1.10;;;;;;;0.27;100.00;99565.88;7388284;19;20123;-46
2023/02/24 08:51:20;;;;;;;7.47;1.50;;;;;;;0.29;100.00;99556.69;7394101;19;20194;-46
2023/02/24 08:53:53;;;;;;;2.05;1.15;;;;;;;0.31;100.00;99539.91;7394276;19;20162;-46
2023/02/24 08:56:27;;;;;;;2.75;1.25;;;;;;;0.32;100.00;99526.47;7391974;19;20194;-47
2023/02/24 08:59:04;;;;;;;6.05;2.13;;;;;;;0.36;100.00;99520.78;7396584;19;20141;-46
2023/02/24 09:01:36;;;;;;;3.88;2.08;;;;;;;0.35;100.00;99507.97;7393154;19;20193;-47
2023/02/24 09:04:08;;;;;;;3.65;1.55;;;;;;;0.36;100.00;99503.00;7393994;19;20171;-45
2023/02/24 09:06:42;;;;;;;4.65;1.92;;;;;;;0.36;100.00;99497.06;7393137;19;20194;-46
2023/02/24 09:09:19;;;;;;;4.25;1.27;;;;;;;0.35;100.00;99493.63;7395834;19;20151;-46
2023/02/24 09:11:54;;;;;;;3.53;2.10;;;;;;;0.36;100.00;99477.63;7388302;19;20194;-47
2023/02/24 09:14:29;;;;;;;9.43;2.45;;;;;;;0.42;100.00;99476.25;7392745;19;20191;-45
2023/02/24 09:17:09;;;;;;;5.20;2.53;;;;;;;0.42;100.00;99463.56;7393538;19;20190;-47
2023/02/24 09:22:39;;;;;;;8.70;3.88;;;;;;;0.42;100.00;99448.34;7395177;19;20147;-47
2023/02/24 09:25:22;;;;;;;5.05;2.70;;;;;;;0.44;100.00;99449.31;7394287;19;20201;-48
2023/02/24 09:27:54;;;;;;;9.15;4.40;;;;;;;0.46;100.00;99440.13;7396643;19;20143;-44
2023/02/24 09:30:49;;;;;;;15.80;5.53;;;;;;;0.46;100.00;99430.00;7393339;19;20198;-47
2023/02/24 09:33:22;;;;;;;13.32;6.05;;;;;;;0.50;100.00;99415.03;7397900;19;20185;-47
2023/02/24 09:36:01;;;;;;;7.28;3.85;;;;;;;0.52;100.00;99382.13;7393655;19;20190;-49
2023/02/24 09:41:44;;;;;;;15.13;5.57;;;;;;;0.58;100.00;99386.69;7389950;19;20186;-46
2023/02/24 09:44:17;;;;;;;8.73;4.95;;;;;;;0.58;100.00;99382.50;7395971;19;20166;-46
2023/02/24 09:46:55;;;;;;;9.05;3.83;;;;;;;0.57;100.00;99380.75;7394939;19;20210;-47
2023/02/24 09:49:38;;;;;;;8.20;4.53;;;;;;;0.58;100.00;99330.84;7395482;19;20135;-46
2023/02/24 09:52:15;;;;;;;6.38;3.58;;;;;;;0.58;100.00;99346.97;7395829;19;20182;-48
2023/02/24 09:55:17;;;;;;;14.93;3.63;;;;;;;0.74;100.00;99336.03;7394757;19;20134;-46
2023/02/24 09:58:22;;;;;;;7.07;3.30;;;;;;;0.77;100.00;99333.66;7398839;19;20150;-47
2023/02/24 10:01:19;;;;;;;16.95;5.90;;;;;;;0.79;100.00;99328.69;7390850;19;20186;-47
2023/02/24 10:04:03;;;;;;;9.68;3.53;;;;;;;0.87;100.00;99329.13;7395128;19;20177;-47
2023/02/24 10:06:49;;;;;;;10.52;4.95;;;;;;;0.91;100.00;99324.31;7392615;19;20197;-46
2023/02/24 10:09:25;;;;;;;26.50;8.80;;;;;;;0.96;100.00;99318.63;7395974;19;20157;-49
2023/02/24 10:12:02;;;;;;;14.52;5.95;;;;;;;1.05;100.00;99303.91;7392479;19;20265;-47
2023/02/24 10:14:39;;;;;;;12.23;4.13;;;;;;;1.04;100.00;99305.53;7395201;19;20542;-46
2023/02/24 10:17:29;;;;;;;2.78;1.55;;;;;;;0.90;100.00;99284.47;7396492;19;20186;-47
2023/02/24 10:20:12;;;;;;;8.25;3.00;;;;;;;0.94;100.00;99207.63;7390428;19;20158;-48
2023/02/24 10:22:49;;;;;;;3.40;2.47;;;;;;;0.98;100.00;99195.13;7396663;19;20180;-48
2023/02/24 10:25:34;;;;;;;10.05;4.03;;;;;;;1.00;100.00;99203.69;7392949;19;20481;-47
2023/02/24 10:28:11;;;;;;;5.38;2.85;;;;;;;1.00;100.00;99209.66;7396414;19;20138;-48
2023/02/24 10:30:48;;;;;;;8.80;3.88;;;;;;;1.05;100.00;99207.38;7391601;19;20667;-47
2023/02/24 10:33:24;;;;;;;7.72;4.10;;;;;;;1.10;100.00;99205.94;7395691;19;20170;-48
2023/02/24 10:36:08;;;;;;;7.90;4.15;;;;;;;1.13;100.00;99201.03;7391122;19;20190;-35
2023/02/24 10:38:39;;;;;;;8.77;3.37;;;;;;;1.13;100.00;99190.88;7396388;19;20607;-35
2023/02/24 10:41:11;;;;;;;9.27;4.97;;;;;;;1.12;100.00;99183.19;7391972;19;20446;-35
2023/02/24 10:43:47;;;;;;;3.88;2.25;;;;;;;1.17;100.00;99167.38;7395555;19;20178;-37
2023/02/24 10:46:25;;;;;;;5.37;2.83;;;;;;;1.22;100.00;99165.06;7390906;19;20185;-35
2023/02/24 10:49:15;;;;;;;5.73;3.37;;;;;;;1.23;100.00;99160.88;7394690;19;20415;-36
2023/02/24 10:51:52;;;;;;;4.60;2.43;;;;;;;1.29;100.00;99151.03;7391131;19;20943;-35
2023/02/24 10:57:14;;;;;;;3.80;2.10;;;;;;;1.38;100.00;99131.19;7393829;19;20454;-35
2023/02/24 10:59:57;;;;;;;4.77;2.47;;;;;;;1.38;100.00;99122.72;7392445;19;20146;-34
2023/02/24 11:02:31;;;;;;;8.10;3.03;;;;;;;1.46;100.00;99127.41;7395178;19;20407;-35
2023/02/24 11:05:25;;;;;;;3.77;2.50;;;;;;;1.45;100.00;99109.53;7389413;19;20430;-35
2023/02/24 11:08:14;;;;;;;3.63;1.83;;;;;;;1.58;100.00;99113.56;7394126;19;20379;-36
2023/02/24 11:11:05;;;;;;;5.93;2.40;;;;;;;1.62;100.00;99105.28;7391029;19;20431;-34
2023/02/24 11:18:59;;;;;;;12.03;4.07;;;;;;;2.00;100.00;99098.72;7394937;19;20758;-34
2023/02/24 11:21:30;;;;;;;21.13;5.20;;;;;;;2.00;100.00;99093.63;7388959;19;20435;-35
2023/02/24 11:24:02;;;;;;;17.17;4.03;;;;;;;2.27;100.00;99088.13;7391849;19;20422;-36
2023/02/24 11:26:37;;;;;;;6.90;3.40;;;;;;;2.17;100.00;99075.78;7390075;19;20817;-35
2023/02/24 11:29:21;;;;;;;7.13;2.23;;;;;;;2.10;100.00;99068.66;7393123;19;20410;-34
2023/02/24 11:32:01;;;;;;;3.77;2.37;;;;;;;2.11;100.00;99055.13;7390163;19;20447;-34
2023/02/24 11:34:36;;;;;;;12.27;2.90;;;;;;;2.06;100.00;99062.53;7391844;19;20430;-33
2023/02/24 11:37:15;;;;;;;4.77;2.80;;;;;;;2.07;100.00;99054.09;7391713;19;20442;-33
2023/02/24 11:39:54;;;;;;;4.30;2.77;;;;;;;2.09;100.00;99061.78;7393215;19;20426;-34
2023/02/24 11:42:27;;;;;;;5.97;2.63;;;;;;;2.13;100.00;99061.16;7393718;19;20405;-34
2023/02/24 11:45:01;;;;;;;10.63;3.60;;;;;;;2.15;100.00;99057.88;7391167;19;20417;-33
2023/02/24 11:47:36;;;;;;;3.40;2.00;;;;;;;2.16;100.00;99048.59;7392504;19;20414;-33
2023/02/24 11:50:25;;;;;;;9.20;2.80;;;;;;;2.22;100.00;99042.91;7388696;19;20414;-34
2023/02/24 11:52:56;;;;;;;6.40;1.77;;;;;;;2.28;100.00;99059.38;7392790;19;20459;-34
2023/02/24 11:55:33;;;;;;;3.53;2.40;;;;;;;2.34;100.00;99042.59;7386700;19;20415;-34
2023/02/24 11:58:05;;;;;;;5.43;2.83;;;;;;;2.39;100.00;99036.06;7393190;19;20530;-35
2023/02/24 12:00:38;;;;;;;10.37;3.50;;;;;;;2.48;100.00;99036.50;7389359;19;20444;-33
2023/02/24 12:03:17;;;;;;;4.23;3.03;;;;;;;2.50;100.00;99044.19;7392331;19;20462;-33
2023/02/24 12:05:50;;;;;;;9.67;3.50;;;;;;;2.56;100.00;99035.19;7390911;19;21075;-34
2023/02/24 12:08:25;;;;;;;10.90;5.07;;;;;;;2.61;100.00;99037.94;7394032;19;20412;-34
2023/02/24 12:11:00;;;;;;;8.20;4.07;;;;;;;2.63;100.00;99035.47;7387290;19;20450;-33
2023/02/24 12:13:37;;;;;;;4.73;2.23;;;;;;;2.66;100.00;99035.63;7392105;19;20438;-37
2023/02/24 12:16:11;;;;;;;17.07;5.10;;;;;;;2.75;100.00;99030.94;7389131;19;20952;-35
2023/02/24 12:18:44;;;;;;;12.70;5.03;;;;;;;2.78;100.00;99025.13;7394069;19;20462;-36
2023/02/24 12:21:18;;;;;;;6.57;3.17;;;;;;;2.85;100.00;99032.22;7383570;19;21034;-33